createdAt,value
2022-11-15T00:02:30.235Z,97711.63
2022-11-15T00:06:34.069Z,97708.34
2022-11-15T00:10:37.537Z,97708.63
2022-11-15T00:14:40.969Z,97706.59
2022-11-15T00:18:50.260Z,97707.63
2022-11-15T00:22:53.732Z,97706.97
2022-11-15T00:26:58.732Z,97713.28
2022-11-15T00:31:06.625Z,97716.06
2022-11-15T00:35:11.164Z,97708.59
2022-11-15T00:39:14.665Z,97708.72
2022-11-15T00:43:18.126Z,97708.91
2022-11-15T00:47:21.492Z,97695.41
2022-11-15T00:51:25.959Z,97693.22
2022-11-15T00:55:29.293Z,97698.97
2022-11-15T00:59:32.804Z,97706.34
2022-11-15T01:03:36.253Z,97689.97
2022-11-15T01:07:40.882Z,97697.47
2022-11-15T01:11:44.318Z,97694.47
2022-11-15T01:15:48.262Z,97690.53
2022-11-15T01:19:51.495Z,97689.69
2022-11-15T01:23:58.003Z,97683.72
2022-11-15T01:28:01.186Z,97663.50
2022-11-15T01:32:05.031Z,97675.69
2022-11-15T01:36:09.673Z,97668.28
2022-11-15T01:40:15.110Z,97659.28
2022-11-15T01:44:45.536Z,97653.16
2022-11-15T01:48:49.045Z,97654.91
2022-11-15T01:52:52.286Z,97653.41
2022-11-15T01:57:01.690Z,97651.78
2022-11-15T02:01:04.948Z,97645.25
2022-11-15T02:05:09.222Z,97634.34
2022-11-15T02:09:13.425Z,97646.59
2022-11-15T02:13:20.433Z,97639.69
2022-11-15T02:17:41.941Z,97642.53
2022-11-15T02:21:54.580Z,97651.53
2022-11-15T02:26:15.567Z,97646.88
2022-11-15T02:30:43.891Z,97646.34
2022-11-15T02:34:53.417Z,97641.56
2022-11-15T02:39:04.681Z,97648.78
2022-11-15T02:43:28.861Z,97635.94
2022-11-15T02:47:40.042Z,97627.75
2022-11-15T02:51:47.318Z,97624.47
2022-11-15T02:55:54.074Z,97630.50
2022-11-15T03:00:09.347Z,97627.25
2022-11-15T03:04:26.446Z,97614.47
2022-11-15T03:08:34.855Z,97606.97
2022-11-15T03:12:45.208Z,97589.09
2022-11-15T03:16:52.093Z,97574.66
2022-11-15T03:20:58.248Z,97588.97
2022-11-15T03:25:06.255Z,97601.09
2022-11-15T03:29:15.468Z,97598.50
2022-11-15T03:33:19.744Z,97576.03
2022-11-15T03:37:31.649Z,97585.97
2022-11-15T03:41:42.661Z,97590.59
2022-11-15T03:45:53.951Z,97591.00
2022-11-15T03:50:02.984Z,97582.84
2022-11-15T03:54:08.238Z,97588.56
2022-11-15T03:58:11.673Z,97588.56
2022-11-15T04:02:15.644Z,97582.56
2022-11-15T04:06:19.296Z,97580.13
2022-11-15T04:10:23.723Z,97580.25
2022-11-15T04:14:27.339Z,97573.56
2022-11-15T04:18:30.899Z,97565.25
2022-11-15T04:22:51.854Z,97567.28
2022-11-15T04:26:56.252Z,97566.75
2022-11-15T04:31:00.095Z,97561.03
2022-11-15T04:35:03.616Z,97557.22
2022-11-15T04:39:07.117Z,97556.84
2022-11-15T04:43:11.925Z,97557.38
2022-11-15T04:47:14.922Z,97556.56
2022-11-15T04:51:18.644Z,97545.53
2022-11-15T04:55:22.563Z,97548.28
2022-11-15T04:59:27.489Z,97542.53
2022-11-15T05:03:48.202Z,97547.69
2022-11-15T05:07:51.225Z,97535.31
2022-11-15T05:11:54.615Z,97534.50
2022-11-15T05:15:59.509Z,97532.44
2022-11-15T05:20:02.527Z,97530.16
2022-11-15T05:24:06.622Z,97518.03
2022-11-15T05:28:09.693Z,97513.94
2022-11-15T05:32:15.224Z,97516.38
2022-11-15T05:36:23.917Z,97508.50
2022-11-15T05:40:28.141Z,97496.78
2022-11-15T05:44:31.787Z,97507.09
2022-11-15T05:48:37.499Z,97499.75
2022-11-15T05:52:41.250Z,97511.31
2022-11-15T05:56:45.165Z,97503.78
2022-11-15T06:00:49.270Z,97505.69
2022-11-15T06:04:54.145Z,97501.59
2022-11-15T06:08:57.352Z,97515.63
2022-11-15T06:13:01.177Z,97508.13
2022-11-15T06:17:08.655Z,97509.84
2022-11-15T06:21:16.200Z,97512.56
2022-11-15T06:25:19.258Z,97510.47
2022-11-15T06:29:22.758Z,97507.47
2022-11-15T06:33:25.760Z,97513.97
2022-11-15T06:37:30.817Z,97517.13
2022-11-15T06:41:36.604Z,97506.31
2022-11-15T06:45:39.688Z,97496.31
2022-11-15T06:49:42.672Z,97496.03
2022-11-15T06:53:47.703Z,97508.72
2022-11-15T06:57:52.138Z,97512.00
2022-11-15T07:01:55.198Z,97518.50
2022-11-15T07:06:06.628Z,97510.44
2022-11-15T07:10:11.931Z,97517.66
2022-11-15T07:14:15.438Z,97510.38
2022-11-15T07:18:18.876Z,97518.69
2022-11-15T07:22:22.486Z,97521.94
2022-11-15T07:26:27.003Z,97520.03
2022-11-15T07:30:30.460Z,97517.44
2022-11-15T07:34:33.645Z,97515.34
2022-11-15T07:38:42.532Z,97508.09
2022-11-15T07:42:57.372Z,97510.91
2022-11-15T07:47:01.729Z,97511.31
2022-11-15T07:51:09.899Z,97506.81
2022-11-15T07:55:16.587Z,97491.75
2022-11-15T07:59:21.580Z,97502.13
2022-11-15T08:03:25.461Z,97501.81
2022-11-15T08:07:32.245Z,97497.31
2022-11-15T08:11:35.430Z,97484.69
2022-11-15T08:15:40.682Z,97488.31
2022-11-15T08:19:44.300Z,97478.19
2022-11-15T08:23:47.648Z,97481.66
2022-11-15T08:27:54.325Z,97481.69
2022-11-15T08:31:59.165Z,97474.28
2022-11-15T08:36:03.316Z,97469.75
2022-11-15T08:40:08.509Z,97471.88
2022-11-15T08:44:11.609Z,97473.22
2022-11-15T08:48:16.704Z,97474.72
2022-11-15T08:52:20.564Z,97467.56
2022-11-15T08:56:23.664Z,97471.47
2022-11-15T09:00:27.577Z,97472.81
2022-11-15T09:04:32.769Z,97475.94
2022-11-15T09:08:51.590Z,97474.81
2022-11-15T09:12:55.203Z,97471.91
2022-11-15T09:16:58.881Z,97474.38
2022-11-15T09:21:03.960Z,97469.84
2022-11-15T09:25:11.154Z,97458.63
2022-11-15T09:29:14.688Z,97460.25
2022-11-15T09:33:17.813Z,97462.06
2022-11-15T09:37:22.657Z,97461.75
2022-11-15T09:41:41.423Z,97454.59
2022-11-15T09:45:59.024Z,97453.19
2022-11-15T09:50:04.669Z,97452.53
2022-11-15T09:58:51.207Z,97457.81
2022-11-15T10:03:10.698Z,97447.28
2022-11-15T10:07:20.773Z,97442.31
2022-11-15T10:11:37.913Z,97443.28
2022-11-15T10:15:46.375Z,97433.06
2022-11-15T10:20:05.342Z,97422.84
2022-11-15T10:24:14.735Z,97408.25
2022-11-15T10:28:24.390Z,97410.84
2022-11-15T10:32:28.589Z,97392.97
2022-11-15T10:36:31.686Z,97386.31
2022-11-15T10:40:35.536Z,97366.81
2022-11-15T10:44:45.382Z,97373.13
2022-11-15T10:48:49.003Z,97363.41
2022-11-15T10:52:52.359Z,97356.09
2022-11-15T10:56:57.977Z,97338.19
2022-11-15T11:01:12.528Z,97335.75
2022-11-15T11:05:30.605Z,97332.47
2022-11-15T11:09:36.754Z,97327.09
2022-11-15T11:13:42.026Z,97315.91
2022-11-15T11:18:00.322Z,97310.69
2022-11-15T11:22:12.873Z,97303.84
2022-11-15T11:26:37.890Z,97295.56
2022-11-15T11:30:50.203Z,97291.34
2022-11-15T11:35:01.414Z,97289.22
2022-11-15T11:39:22.475Z,97287.13
2022-11-15T11:43:32.962Z,97277.53
2022-11-15T11:47:42.978Z,97283.22
2022-11-15T11:51:54.098Z,97275.91
2022-11-15T11:56:01.431Z,97265.81
2022-11-15T12:00:15.338Z,97271.03
2022-11-15T12:04:21.608Z,97258.69
2022-11-15T12:08:51.455Z,97241.13
2022-11-15T12:13:03.595Z,97227.94
2022-11-15T12:17:07.311Z,97221.09
2022-11-15T12:21:18.339Z,97223.72
2022-11-15T12:25:25.284Z,97216.72
2022-11-15T12:29:36.741Z,97128.72
2022-11-15T12:33:43.495Z,97205.00
2022-11-15T12:37:58.850Z,97196.88
2022-11-15T12:42:35.190Z,97186.13
2022-11-15T12:47:07.108Z,97184.81
2022-11-15T12:51:10.148Z,97178.63
2022-11-15T12:55:34.414Z,97176.66
2022-11-15T12:59:56.042Z,97164.00
2022-11-15T13:04:25.316Z,97159.78
2022-11-15T13:08:52.013Z,97164.03
2022-11-15T13:12:58.701Z,97159.50
2022-11-15T13:17:02.119Z,97159.66
2022-11-15T13:21:39.386Z,97151.34
2022-11-15T13:25:57.884Z,97129.59
2022-11-15T13:30:18.800Z,97130.41
2022-11-15T13:39:03.483Z,97125.22
2022-11-15T18:39:46.523Z,96994.63
2022-11-15T18:43:52.660Z,97002.41
2022-11-15T18:47:56.130Z,96996.28
2022-11-15T18:51:59.777Z,96988.16
2022-11-15T18:56:05.539Z,96998.34
2022-11-15T19:00:10.979Z,96985.19
2022-11-15T19:04:16.018Z,96983.25
2022-11-15T19:08:19.674Z,96977.72
2022-11-15T19:12:24.634Z,96973.34
2022-11-15T19:16:29.278Z,96966.19
2022-11-15T19:20:33.281Z,96966.19
2022-11-15T19:24:37.103Z,96967.78
2022-11-15T19:28:41.872Z,96970.22
2022-11-15T19:32:47.167Z,96969.44
2022-11-15T19:36:50.670Z,96971.88
2022-11-15T19:41:00.049Z,96972.50
2022-11-15T19:45:05.673Z,96967.94
2022-11-15T19:49:12.278Z,96961.94
2022-11-15T19:53:15.458Z,96960.81
2022-11-15T19:57:21.289Z,96957.22
2022-11-15T20:01:29.674Z,96964.03
2022-11-15T20:05:32.890Z,96962.25
2022-11-15T20:09:37.478Z,96962.09
2022-11-15T20:13:43.442Z,96961.91
2022-11-15T20:17:52.169Z,96952.16
2022-11-15T20:21:55.485Z,96950.38
2022-11-15T20:25:59.302Z,96939.97
2022-11-15T20:30:03.021Z,96942.41
2022-11-15T20:34:08.090Z,96944.03
2022-11-15T20:38:12.082Z,96944.84
2022-11-15T20:42:15.969Z,96932.63
2022-11-15T20:46:20.137Z,96925.66
2022-11-15T20:50:42.191Z,96915.09
2022-11-15T20:54:46.460Z,96912.00
2022-11-15T20:58:51.603Z,96910.72
2022-11-15T21:02:56.384Z,96913.66
2022-11-15T21:07:01.874Z,96901.81
2022-11-15T21:11:22.974Z,96890.94
2022-11-15T21:15:26.216Z,96889.31
2022-11-15T21:19:35.543Z,96902.31
2022-11-15T21:23:42.258Z,96911.06
2022-11-15T21:27:46.636Z,96897.28
2022-11-15T21:31:51.930Z,96891.59
2022-11-15T21:35:57.087Z,96889.50
2022-11-15T21:40:02.698Z,96880.59
2022-11-15T21:44:07.814Z,96881.28
2022-11-15T21:48:11.797Z,96879.22
2022-11-15T21:52:15.461Z,96880.34
2022-11-15T21:56:20.386Z,96859.88
2022-11-15T22:00:41.775Z,96849.03
2022-11-15T22:04:45.509Z,96851.16
2022-11-15T22:08:49.307Z,96852.13
2022-11-15T22:12:53.741Z,96855.72
2022-11-15T22:16:56.900Z,96856.06
2022-11-15T22:21:02.192Z,96844.03
2022-11-15T22:25:05.911Z,96835.59
2022-11-15T22:29:10.944Z,96841.09
2022-11-15T22:33:14.151Z,96827.47
2022-11-15T22:37:21.300Z,96825.88
2022-11-15T22:41:25.055Z,96816.47
2022-11-15T22:45:30.104Z,96819.06
2022-11-15T22:49:33.329Z,96807.41
2022-11-15T22:53:36.956Z,96815.19
2022-11-15T22:57:40.530Z,96818.13
2022-11-15T23:01:45.487Z,96812.94
2022-11-15T23:05:49.486Z,96797.69
2022-11-15T23:09:55.470Z,96794.44
2022-11-15T23:13:58.004Z,96778.06
2022-11-15T23:18:02.416Z,96787.63
2022-11-15T23:22:23.433Z,96790.38
2022-11-15T23:26:26.974Z,96783.75
2022-11-15T23:30:47.943Z,96769.97
2022-11-15T23:34:52.451Z,96769.13
2022-11-15T23:38:56.393Z,96758.13
2022-11-15T23:43:00.396Z,96744.34
2022-11-15T23:47:03.559Z,96731.53
2022-11-15T23:51:10.530Z,96731.69
2022-11-15T23:55:13.576Z,96728.31
2022-11-15T23:59:17.162Z,96721.47
